sensor_id;sensor_type;location;lat;lon;timestamp;P1;durP1;ratioP1;P2;durP2;ratioP2
68993;SDS011;56054;50.968;5.816;2022-08-18T00:02:34;30.02;;;23.90;;
68993;SDS011;56054;50.968;5.816;2022-08-18T00:05:41;32.28;;;22.23;;
68993;SDS011;56054;50.968;5.816;2022-08-18T00:08:48;31.33;;;23.98;;
68993;SDS011;56054;50.968;5.816;2022-08-18T00:11:55;32.40;;;24.15;;
68993;SDS011;56054;50.968;5.816;2022-08-18T00:15:03;29.48;;;22.85;;
68993;SDS011;56054;50.968;5.816;2022-08-18T00:18:14;25.88;;;21.05;;
68993;SDS011;56054;50.968;5.816;2022-08-18T00:21:21;30.55;;;22.52;;
68993;SDS011;56054;50.968;5.816;2022-08-18T00:24:28;27.50;;;22.80;;
68993;SDS011;56054;50.968;5.816;2022-08-18T00:27:35;25.77;;;22.63;;
68993;SDS011;56054;50.968;5.816;2022-08-18T00:30:45;27.23;;;22.40;;
68993;SDS011;56054;50.968;5.816;2022-08-18T00:33:53;29.88;;;22.33;;
68993;SDS011;56054;50.968;5.816;2022-08-18T00:37:03;28.30;;;22.00;;
68993;SDS011;56054;50.968;5.816;2022-08-18T00:40:16;27.80;;;23.23;;
68993;SDS011;56054;50.968;5.816;2022-08-18T00:43:41;26.55;;;21.80;;
68993;SDS011;56054;50.968;5.816;2022-08-18T00:46:52;27.08;;;22.17;;
68993;SDS011;56054;50.968;5.816;2022-08-18T00:50:00;28.67;;;22.92;;
68993;SDS011;56054;50.968;5.816;2022-08-18T00:53:12;31.65;;;24.77;;
68993;SDS011;56054;50.968;5.816;2022-08-18T00:56:30;29.48;;;23.50;;
68993;SDS011;56054;50.968;5.816;2022-08-18T00:59:45;31.98;;;23.48;;
68993;SDS011;56054;50.968;5.816;2022-08-18T01:03:03;30.38;;;22.00;;
68993;SDS011;56054;50.968;5.816;2022-08-18T01:06:16;27.77;;;22.45;;
68993;SDS011;56054;50.968;5.816;2022-08-18T01:09:31;27.13;;;23.00;;
68993;SDS011;56054;50.968;5.816;2022-08-18T01:12:38;32.00;;;23.65;;
68993;SDS011;56054;50.968;5.816;2022-08-18T01:15:45;28.60;;;23.50;;
68993;SDS011;56054;50.968;5.816;2022-08-18T01:18:52;35.25;;;24.77;;
68993;SDS011;56054;50.968;5.816;2022-08-18T01:22:01;35.67;;;26.42;;
68993;SDS011;56054;50.968;5.816;2022-08-18T01:25:16;46.58;;;32.65;;
68993;SDS011;56054;50.968;5.816;2022-08-18T01:28:25;66.90;;;42.28;;
68993;SDS011;56054;50.968;5.816;2022-08-18T01:31:34;75.18;;;45.38;;
68993;SDS011;56054;50.968;5.816;2022-08-18T01:34:46;75.75;;;46.60;;
68993;SDS011;56054;50.968;5.816;2022-08-18T01:37:55;73.03;;;46.10;;
68993;SDS011;56054;50.968;5.816;2022-08-18T01:41:02;75.88;;;44.50;;
68993;SDS011;56054;50.968;5.816;2022-08-18T01:44:09;68.97;;;42.42;;
68993;SDS011;56054;50.968;5.816;2022-08-18T01:47:16;78.20;;;45.22;;
68993;SDS011;56054;50.968;5.816;2022-08-18T01:50:23;77.75;;;44.08;;
68993;SDS011;56054;50.968;5.816;2022-08-18T01:53:31;84.78;;;46.85;;
68993;SDS011;56054;50.968;5.816;2022-08-18T01:56:38;83.57;;;45.00;;
68993;SDS011;56054;50.968;5.816;2022-08-18T01:59:47;80.60;;;44.55;;
68993;SDS011;56054;50.968;5.816;2022-08-18T02:02:54;80.05;;;43.17;;
68993;SDS011;56054;50.968;5.816;2022-08-18T02:06:03;79.57;;;42.65;;
68993;SDS011;56054;50.968;5.816;2022-08-18T02:09:14;81.80;;;45.88;;
68993;SDS011;56054;50.968;5.816;2022-08-18T02:12:21;78.22;;;44.70;;
68993;SDS011;56054;50.968;5.816;2022-08-18T02:15:28;78.78;;;44.85;;
68993;SDS011;56054;50.968;5.816;2022-08-18T02:18:35;78.10;;;44.35;;
68993;SDS011;56054;50.968;5.816;2022-08-18T02:21:43;72.05;;;43.30;;
68993;SDS011;56054;50.968;5.816;2022-08-18T02:24:50;77.90;;;44.90;;
68993;SDS011;56054;50.968;5.816;2022-08-18T02:27:57;70.68;;;42.28;;
68993;SDS011;56054;50.968;5.816;2022-08-18T02:31:05;75.03;;;43.78;;
68993;SDS011;56054;50.968;5.816;2022-08-18T02:34:14;75.50;;;43.75;;
68993;SDS011;56054;50.968;5.816;2022-08-18T02:37:21;75.38;;;42.97;;
68993;SDS011;56054;50.968;5.816;2022-08-18T02:40:35;77.93;;;43.17;;
68993;SDS011;56054;50.968;5.816;2022-08-18T02:43:42;89.43;;;42.22;;
68993;SDS011;56054;50.968;5.816;2022-08-18T02:46:52;89.15;;;44.55;;
68993;SDS011;56054;50.968;5.816;2022-08-18T02:50:02;83.18;;;40.58;;
68993;SDS011;56054;50.968;5.816;2022-08-18T02:53:09;75.35;;;40.30;;
68993;SDS011;56054;50.968;5.816;2022-08-18T02:56:18;84.22;;;42.15;;
68993;SDS011;56054;50.968;5.816;2022-08-18T02:59:28;76.65;;;40.60;;
68993;SDS011;56054;50.968;5.816;2022-08-18T03:02:35;76.10;;;40.30;;
68993;SDS011;56054;50.968;5.816;2022-08-18T03:05:42;76.63;;;40.85;;
68993;SDS011;56054;50.968;5.816;2022-08-18T03:08:49;78.00;;;41.17;;
68993;SDS011;56054;50.968;5.816;2022-08-18T03:11:57;67.78;;;40.55;;
68993;SDS011;56054;50.968;5.816;2022-08-18T03:15:04;77.35;;;39.90;;
68993;SDS011;56054;50.968;5.816;2022-08-18T03:18:11;60.83;;;36.17;;
68993;SDS011;56054;50.968;5.816;2022-08-18T03:21:22;58.90;;;34.75;;
68993;SDS011;56054;50.968;5.816;2022-08-18T03:24:31;54.50;;;35.00;;
68993;SDS011;56054;50.968;5.816;2022-08-18T03:27:38;62.05;;;36.63;;
68993;SDS011;56054;50.968;5.816;2022-08-18T03:30:45;55.03;;;35.40;;
68993;SDS011;56054;50.968;5.816;2022-08-18T03:33:52;49.25;;;33.38;;
68993;SDS011;56054;50.968;5.816;2022-08-18T03:37:00;52.30;;;34.58;;
68993;SDS011;56054;50.968;5.816;2022-08-18T03:40:07;42.53;;;29.40;;
68993;SDS011;56054;50.968;5.816;2022-08-18T03:43:15;45.38;;;30.52;;
68993;SDS011;56054;50.968;5.816;2022-08-18T03:46:22;46.08;;;28.40;;
68993;SDS011;56054;50.968;5.816;2022-08-18T03:49:29;42.30;;;27.77;;
68993;SDS011;56054;50.968;5.816;2022-08-18T03:52:37;44.25;;;30.58;;
68993;SDS011;56054;50.968;5.816;2022-08-18T03:55:44;41.92;;;28.73;;
68993;SDS011;56054;50.968;5.816;2022-08-18T03:58:52;48.05;;;30.42;;
68993;SDS011;56054;50.968;5.816;2022-08-18T04:02:03;40.20;;;28.33;;
68993;SDS011;56054;50.968;5.816;2022-08-18T04:05:10;43.72;;;28.60;;
68993;SDS011;56054;50.968;5.816;2022-08-18T04:08:17;44.00;;;28.33;;
68993;SDS011;56054;50.968;5.816;2022-08-18T04:11:24;45.42;;;28.83;;
68993;SDS011;56054;50.968;5.816;2022-08-18T04:14:32;41.17;;;29.02;;
68993;SDS011;56054;50.968;5.816;2022-08-18T04:17:39;43.08;;;29.73;;
68993;SDS011;56054;50.968;5.816;2022-08-18T04:20:46;40.70;;;28.23;;
68993;SDS011;56054;50.968;5.816;2022-08-18T04:23:53;44.08;;;27.00;;
68993;SDS011;56054;50.968;5.816;2022-08-18T04:27:01;45.90;;;28.55;;
68993;SDS011;56054;50.968;5.816;2022-08-18T04:30:09;39.47;;;27.42;;
68993;SDS011;56054;50.968;5.816;2022-08-18T04:33:17;46.58;;;27.98;;
68993;SDS011;56054;50.968;5.816;2022-08-18T04:36:24;44.58;;;29.85;;
68993;SDS011;56054;50.968;5.816;2022-08-18T04:39:32;42.95;;;27.92;;
68993;SDS011;56054;50.968;5.816;2022-08-18T04:42:39;52.38;;;29.90;;
68993;SDS011;56054;50.968;5.816;2022-08-18T04:45:46;47.85;;;30.55;;
68993;SDS011;56054;50.968;5.816;2022-08-18T04:48:54;49.53;;;29.65;;
68993;SDS011;56054;50.968;5.816;2022-08-18T04:52:05;45.63;;;29.10;;
68993;SDS011;56054;50.968;5.816;2022-08-18T04:55:12;45.33;;;28.52;;
68993;SDS011;56054;50.968;5.816;2022-08-18T04:58:19;46.97;;;29.17;;
68993;SDS011;56054;50.968;5.816;2022-08-18T05:01:29;48.33;;;28.55;;
68993;SDS011;56054;50.968;5.816;2022-08-18T05:04:40;45.45;;;28.60;;
68993;SDS011;56054;50.968;5.816;2022-08-18T05:08:00;43.50;;;27.60;;
68993;SDS011;56054;50.968;5.816;2022-08-18T05:11:12;45.40;;;28.02;;
68993;SDS011;56054;50.968;5.816;2022-08-18T05:18:19;51.72;;;31.23;;
68993;SDS011;56054;50.968;5.816;2022-08-18T05:25:38;44.40;;;27.25;;
68993;SDS011;56054;50.968;5.816;2022-08-18T05:29:25;49.17;;;30.08;;
68993;SDS011;56054;50.968;5.816;2022-08-18T05:32:38;45.17;;;28.23;;
68993;SDS011;56054;50.968;5.816;2022-08-18T05:35:51;49.03;;;30.17;;
68993;SDS011;56054;50.968;5.816;2022-08-18T05:42:25;43.97;;;28.05;;
68993;SDS011;56054;50.968;5.816;2022-08-18T05:45:34;51.33;;;30.40;;
68993;SDS011;56054;50.968;5.816;2022-08-18T05:48:43;50.80;;;30.65;;
68993;SDS011;56054;50.968;5.816;2022-08-18T05:52:19;49.22;;;29.42;;
68993;SDS011;56054;50.968;5.816;2022-08-18T05:59:31;44.70;;;27.60;;
68993;SDS011;56054;50.968;5.816;2022-08-18T06:03:18;43.83;;;27.02;;
68993;SDS011;56054;50.968;5.816;2022-08-18T06:06:29;47.78;;;30.17;;
68993;SDS011;56054;50.968;5.816;2022-08-18T06:09:46;49.00;;;30.77;;
68993;SDS011;56054;50.968;5.816;2022-08-18T06:12:58;44.35;;;26.63;;
68993;SDS011;56054;50.968;5.816;2022-08-18T06:16:23;46.90;;;29.52;;
68993;SDS011;56054;50.968;5.816;2022-08-18T06:19:59;51.35;;;29.75;;
68993;SDS011;56054;50.968;5.816;2022-08-18T06:23:20;46.60;;;26.77;;
68993;SDS011;56054;50.968;5.816;2022-08-18T06:26:39;42.97;;;27.52;;
68993;SDS011;56054;50.968;5.816;2022-08-18T06:30:18;40.03;;;26.98;;
68993;SDS011;56054;50.968;5.816;2022-08-18T06:39:59;42.42;;;26.45;;
68993;SDS011;56054;50.968;5.816;2022-08-18T06:43:08;41.40;;;26.13;;
68993;SDS011;56054;50.968;5.816;2022-08-18T06:46:20;46.63;;;28.23;;
68993;SDS011;56054;50.968;5.816;2022-08-18T06:52:55;44.03;;;28.60;;
68993;SDS011;56054;50.968;5.816;2022-08-18T06:57:08;43.67;;;28.83;;
68993;SDS011;56054;50.968;5.816;2022-08-18T06:59:53;35.47;;;25.40;;
68993;SDS011;56054;50.968;5.816;2022-08-18T07:03:13;34.88;;;24.13;;
68993;SDS011;56054;50.968;5.816;2022-08-18T07:06:24;34.88;;;24.67;;
68993;SDS011;56054;50.968;5.816;2022-08-18T07:14:11;35.13;;;23.13;;
68993;SDS011;56054;50.968;5.816;2022-08-18T07:17:38;34.75;;;23.58;;
68993;SDS011;56054;50.968;5.816;2022-08-18T07:21:04;38.85;;;25.52;;
68993;SDS011;56054;50.968;5.816;2022-08-18T07:24:24;40.53;;;25.98;;
68993;SDS011;56054;50.968;5.816;2022-08-18T07:31:46;45.45;;;27.42;;
68993;SDS011;56054;50.968;5.816;2022-08-18T07:35:00;45.95;;;27.52;;
68993;SDS011;56054;50.968;5.816;2022-08-18T07:42:34;45.88;;;28.00;;
68993;SDS011;56054;50.968;5.816;2022-08-18T07:49:53;39.28;;;25.10;;
68993;SDS011;56054;50.968;5.816;2022-08-18T08:00:30;33.22;;;22.88;;
68993;SDS011;56054;50.968;5.816;2022-08-18T08:04:02;32.13;;;22.30;;
68993;SDS011;56054;50.968;5.816;2022-08-18T08:33:30;23.70;;;16.25;;
68993;SDS011;56054;50.968;5.816;2022-08-18T08:40:26;22.70;;;16.65;;
68993;SDS011;56054;50.968;5.816;2022-08-18T08:44:08;21.95;;;15.68;;
68993;SDS011;56054;50.968;5.816;2022-08-18T08:47:37;21.65;;;15.50;;
68993;SDS011;56054;50.968;5.816;2022-08-18T08:51:01;22.42;;;13.88;;
68993;SDS011;56054;50.968;5.816;2022-08-18T08:58:09;18.58;;;11.57;;
68993;SDS011;56054;50.968;5.816;2022-08-18T09:05:07;11.10;;;8.68;;
68993;SDS011;56054;50.968;5.816;2022-08-18T09:08:38;14.50;;;8.93;;
68993;SDS011;56054;50.968;5.816;2022-08-18T09:19:44;11.43;;;8.00;;
68993;SDS011;56054;50.968;5.816;2022-08-18T09:26:51;15.45;;;8.95;;
68993;SDS011;56054;50.968;5.816;2022-08-18T09:30:53;12.20;;;8.80;;
68993;SDS011;56054;50.968;5.816;2022-08-18T09:34:29;16.08;;;9.70;;
68993;SDS011;56054;50.968;5.816;2022-08-18T09:37:49;13.15;;;8.60;;
68993;SDS011;56054;50.968;5.816;2022-08-18T09:41:23;14.68;;;9.35;;
68993;SDS011;56054;50.968;5.816;2022-08-18T09:51:19;12.43;;;8.70;;
68993;SDS011;56054;50.968;5.816;2022-08-18T09:54:47;17.00;;;9.23;;
68993;SDS011;56054;50.968;5.816;2022-08-18T10:01:31;13.00;;;9.60;;
68993;SDS011;56054;50.968;5.816;2022-08-18T10:04:40;13.13;;;10.00;;
68993;SDS011;56054;50.968;5.816;2022-08-18T10:07:49;13.85;;;9.13;;
68993;SDS011;56054;50.968;5.816;2022-08-18T10:11:03;12.30;;;9.02;;
68993;SDS011;56054;50.968;5.816;2022-08-18T10:21:20;13.57;;;9.30;;
68993;SDS011;56054;50.968;5.816;2022-08-18T10:24:34;12.07;;;8.70;;
68993;SDS011;56054;50.968;5.816;2022-08-18T10:27:50;13.35;;;8.55;;
68993;SDS011;56054;50.968;5.816;2022-08-18T10:31:00;11.38;;;8.10;;
68993;SDS011;56054;50.968;5.816;2022-08-18T10:34:10;13.18;;;8.10;;
68993;SDS011;56054;50.968;5.816;2022-08-18T10:37:24;11.85;;;7.72;;
68993;SDS011;56054;50.968;5.816;2022-08-18T10:40:35;10.80;;;7.68;;
68993;SDS011;56054;50.968;5.816;2022-08-18T10:43:47;12.32;;;7.80;;
68993;SDS011;56054;50.968;5.816;2022-08-18T10:46:57;9.02;;;7.22;;
68993;SDS011;56054;50.968;5.816;2022-08-18T10:50:18;12.15;;;8.50;;
68993;SDS011;56054;50.968;5.816;2022-08-18T11:04:06;10.43;;;6.45;;
68993;SDS011;56054;50.968;5.816;2022-08-18T11:07:32;10.23;;;6.60;;
68993;SDS011;56054;50.968;5.816;2022-08-18T11:10:47;10.80;;;7.18;;
68993;SDS011;56054;50.968;5.816;2022-08-18T11:14:02;9.52;;;7.20;;
68993;SDS011;56054;50.968;5.816;2022-08-18T11:20:22;10.48;;;7.30;;
68993;SDS011;56054;50.968;5.816;2022-08-18T11:23:34;10.73;;;8.40;;
68993;SDS011;56054;50.968;5.816;2022-08-18T11:26:55;10.50;;;7.78;;
68993;SDS011;56054;50.968;5.816;2022-08-18T11:30:13;11.65;;;9.00;;
68993;SDS011;56054;50.968;5.816;2022-08-18T11:33:24;11.50;;;7.72;;
68993;SDS011;56054;50.968;5.816;2022-08-18T11:36:31;10.23;;;6.97;;
68993;SDS011;56054;50.968;5.816;2022-08-18T11:39:45;13.52;;;9.20;;
68993;SDS011;56054;50.968;5.816;2022-08-18T11:42:58;10.20;;;8.75;;
68993;SDS011;56054;50.968;5.816;2022-08-18T11:46:36;13.29;;;9.37;;
68993;SDS011;56054;50.968;5.816;2022-08-18T11:49:51;10.82;;;8.73;;
68993;SDS011;56054;50.968;5.816;2022-08-18T11:57:26;16.00;;;9.80;;
68993;SDS011;56054;50.968;5.816;2022-08-18T12:03:52;15.57;;;9.07;;
68993;SDS011;56054;50.968;5.816;2022-08-18T12:07:14;14.27;;;9.50;;
68993;SDS011;56054;50.968;5.816;2022-08-18T12:11:00;11.32;;;9.30;;
68993;SDS011;56054;50.968;5.816;2022-08-18T12:14:28;11.38;;;8.27;;
68993;SDS011;56054;50.968;5.816;2022-08-18T12:17:40;12.23;;;8.02;;
68993;SDS011;56054;50.968;5.816;2022-08-18T12:20:47;10.98;;;8.40;;
68993;SDS011;56054;50.968;5.816;2022-08-18T12:23:55;10.57;;;8.20;;
68993;SDS011;56054;50.968;5.816;2022-08-18T12:27:10;13.18;;;8.55;;
68993;SDS011;56054;50.968;5.816;2022-08-18T12:30:23;12.63;;;8.02;;
68993;SDS011;56054;50.968;5.816;2022-08-18T12:33:33;11.10;;;8.50;;
68993;SDS011;56054;50.968;5.816;2022-08-18T12:36:42;9.80;;;7.35;;
68993;SDS011;56054;50.968;5.816;2022-08-18T12:39:53;11.43;;;9.65;;
68993;SDS011;56054;50.968;5.816;2022-08-18T12:43:02;13.98;;;7.50;;
68993;SDS011;56054;50.968;5.816;2022-08-18T12:46:10;9.63;;;7.82;;
68993;SDS011;56054;50.968;5.816;2022-08-18T12:49:26;9.35;;;6.75;;
68993;SDS011;56054;50.968;5.816;2022-08-18T12:52:41;11.40;;;8.90;;
68993;SDS011;56054;50.968;5.816;2022-08-18T12:55:48;14.35;;;8.75;;
68993;SDS011;56054;50.968;5.816;2022-08-18T12:58:55;10.73;;;8.32;;
68993;SDS011;56054;50.968;5.816;2022-08-18T13:02:04;12.48;;;8.63;;
68993;SDS011;56054;50.968;5.816;2022-08-18T13:05:11;11.45;;;7.85;;
68993;SDS011;56054;50.968;5.816;2022-08-18T13:08:19;8.93;;;5.72;;
68993;SDS011;56054;50.968;5.816;2022-08-18T13:11:47;9.15;;;5.72;;
68993;SDS011;56054;50.968;5.816;2022-08-18T13:14:56;7.68;;;5.00;;
68993;SDS011;56054;50.968;5.816;2022-08-18T13:18:05;6.68;;;5.00;;
68993;SDS011;56054;50.968;5.816;2022-08-18T13:21:13;7.53;;;5.43;;
68993;SDS011;56054;50.968;5.816;2022-08-18T13:24:23;9.93;;;5.20;;
68993;SDS011;56054;50.968;5.816;2022-08-18T13:28:00;11.32;;;4.45;;
68993;SDS011;56054;50.968;5.816;2022-08-18T13:31:24;6.75;;;4.68;;
68993;SDS011;56054;50.968;5.816;2022-08-18T13:34:53;7.15;;;5.00;;
68993;SDS011;56054;50.968;5.816;2022-08-18T13:38:03;6.30;;;3.22;;
68993;SDS011;56054;50.968;5.816;2022-08-18T13:41:33;4.90;;;3.15;;
68993;SDS011;56054;50.968;5.816;2022-08-18T13:44:51;7.15;;;3.83;;
68993;SDS011;56054;50.968;5.816;2022-08-18T13:48:09;6.35;;;3.70;;
68993;SDS011;56054;50.968;5.816;2022-08-18T13:52:08;5.45;;;3.85;;
68993;SDS011;56054;50.968;5.816;2022-08-18T13:55:18;5.13;;;3.67;;
68993;SDS011;56054;50.968;5.816;2022-08-18T13:58:29;5.15;;;4.05;;
68993;SDS011;56054;50.968;5.816;2022-08-18T14:01:41;6.78;;;4.43;;
68993;SDS011;56054;50.968;5.816;2022-08-18T14:04:50;7.35;;;4.25;;
68993;SDS011;56054;50.968;5.816;2022-08-18T14:08:00;9.32;;;4.40;;
68993;SDS011;56054;50.968;5.816;2022-08-18T14:11:10;5.93;;;4.50;;
68993;SDS011;56054;50.968;5.816;2022-08-18T14:14:20;5.05;;;4.40;;
68993;SDS011;56054;50.968;5.816;2022-08-18T14:17:39;7.90;;;5.07;;
68993;SDS011;56054;50.968;5.816;2022-08-18T14:21:08;7.10;;;4.40;;
68993;SDS011;56054;50.968;5.816;2022-08-18T14:24:24;6.50;;;4.25;;
68993;SDS011;56054;50.968;5.816;2022-08-18T14:27:34;6.78;;;4.65;;
68993;SDS011;56054;50.968;5.816;2022-08-18T14:30:50;6.68;;;5.53;;
68993;SDS011;56054;50.968;5.816;2022-08-18T14:33:59;6.22;;;4.80;;
68993;SDS011;56054;50.968;5.816;2022-08-18T14:41:28;5.30;;;4.20;;
68993;SDS011;56054;50.968;5.816;2022-08-18T14:57:07;6.60;;;4.18;;
68993;SDS011;56054;50.968;5.816;2022-08-18T15:00:36;5.82;;;3.83;;
68993;SDS011;56054;50.968;5.816;2022-08-18T15:04:15;6.85;;;4.15;;
68993;SDS011;56054;50.968;5.816;2022-08-18T15:41:01;6.05;;;3.33;;
68993;SDS011;56054;50.968;5.816;2022-08-18T15:44:33;5.43;;;3.85;;
68993;SDS011;56054;50.968;5.816;2022-08-18T15:48:03;5.70;;;3.55;;
68993;SDS011;56054;50.968;5.816;2022-08-18T15:51:11;4.25;;;2.97;;
68993;SDS011;56054;50.968;5.816;2022-08-18T15:58:25;6.03;;;3.92;;
68993;SDS011;56054;50.968;5.816;2022-08-18T16:15:44;5.60;;;3.22;;
68993;SDS011;56054;50.968;5.816;2022-08-18T16:18:57;6.47;;;3.05;;
68993;SDS011;56054;50.968;5.816;2022-08-18T16:22:07;3.97;;;3.20;;
68993;SDS011;56054;50.968;5.816;2022-08-18T16:25:20;4.72;;;3.45;;
68993;SDS011;56054;50.968;5.816;2022-08-18T16:28:46;6.43;;;2.78;;
68993;SDS011;56054;50.968;5.816;2022-08-18T16:31:54;4.70;;;3.28;;
68993;SDS011;56054;50.968;5.816;2022-08-18T16:35:05;3.88;;;3.05;;
68993;SDS011;56054;50.968;5.816;2022-08-18T16:38:19;5.57;;;3.78;;
68993;SDS011;56054;50.968;5.816;2022-08-18T16:41:29;6.10;;;3.63;;
68993;SDS011;56054;50.968;5.816;2022-08-18T16:44:36;4.65;;;3.63;;
68993;SDS011;56054;50.968;5.816;2022-08-18T16:47:46;5.30;;;3.03;;
68993;SDS011;56054;50.968;5.816;2022-08-18T16:50:56;5.00;;;3.55;;
68993;SDS011;56054;50.968;5.816;2022-08-18T16:54:11;6.47;;;3.40;;
68993;SDS011;56054;50.968;5.816;2022-08-18T16:57:17;4.50;;;3.28;;
68993;SDS011;56054;50.968;5.816;2022-08-18T17:00:26;6.40;;;3.58;;
68993;SDS011;56054;50.968;5.816;2022-08-18T17:03:34;8.80;;;3.58;;
68993;SDS011;56054;50.968;5.816;2022-08-18T17:06:41;4.95;;;3.30;;
68993;SDS011;56054;50.968;5.816;2022-08-18T17:10:16;4.45;;;3.40;;
68993;SDS011;56054;50.968;5.816;2022-08-18T17:13:43;5.75;;;3.50;;
68993;SDS011;56054;50.968;5.816;2022-08-18T17:17:04;4.88;;;3.40;;
68993;SDS011;56054;50.968;5.816;2022-08-18T17:20:11;5.22;;;3.28;;
68993;SDS011;56054;50.968;5.816;2022-08-18T17:23:43;4.53;;;3.75;;
68993;SDS011;56054;50.968;5.816;2022-08-18T17:30:30;5.78;;;3.38;;
68993;SDS011;56054;50.968;5.816;2022-08-18T17:33:43;7.63;;;4.10;;
68993;SDS011;56054;50.968;5.816;2022-08-18T17:37:02;5.25;;;3.35;;
68993;SDS011;56054;50.968;5.816;2022-08-18T17:40:20;5.28;;;3.45;;
68993;SDS011;56054;50.968;5.816;2022-08-18T17:43:35;7.80;;;3.72;;
68993;SDS011;56054;50.968;5.816;2022-08-18T17:47:09;6.63;;;3.63;;
68993;SDS011;56054;50.968;5.816;2022-08-18T17:50:57;5.05;;;3.72;;
68993;SDS011;56054;50.968;5.816;2022-08-18T17:57:52;5.00;;;3.80;;
68993;SDS011;56054;50.968;5.816;2022-08-18T18:01:07;5.68;;;3.78;;
68993;SDS011;56054;50.968;5.816;2022-08-18T18:04:18;7.32;;;4.28;;
68993;SDS011;56054;50.968;5.816;2022-08-18T18:07:27;5.47;;;4.30;;
68993;SDS011;56054;50.968;5.816;2022-08-18T18:10:43;7.95;;;5.43;;
68993;SDS011;56054;50.968;5.816;2022-08-18T18:17:44;4.88;;;3.53;;
68993;SDS011;56054;50.968;5.816;2022-08-18T18:24:19;6.00;;;4.00;;
68993;SDS011;56054;50.968;5.816;2022-08-18T18:27:45;6.78;;;3.90;;
68993;SDS011;56054;50.968;5.816;2022-08-18T18:31:25;5.90;;;4.28;;
68993;SDS011;56054;50.968;5.816;2022-08-18T18:34:45;6.28;;;4.07;;
68993;SDS011;56054;50.968;5.816;2022-08-18T18:38:24;5.18;;;4.22;;
68993;SDS011;56054;50.968;5.816;2022-08-18T18:41:31;6.22;;;4.55;;
68993;SDS011;56054;50.968;5.816;2022-08-18T18:44:48;5.68;;;4.32;;
68993;SDS011;56054;50.968;5.816;2022-08-18T18:48:17;8.05;;;4.18;;
68993;SDS011;56054;50.968;5.816;2022-08-18T19:02:27;8.70;;;5.05;;
68993;SDS011;56054;50.968;5.816;2022-08-18T19:12:31;6.65;;;5.22;;
68993;SDS011;56054;50.968;5.816;2022-08-18T19:15:45;7.55;;;5.72;;
68993;SDS011;56054;50.968;5.816;2022-08-18T19:19:55;8.05;;;5.30;;
68993;SDS011;56054;50.968;5.816;2022-08-18T19:26:39;6.40;;;5.60;;
68993;SDS011;56054;50.968;5.816;2022-08-18T19:29:49;9.25;;;6.63;;
68993;SDS011;56054;50.968;5.816;2022-08-18T19:33:09;7.57;;;6.45;;
68993;SDS011;56054;50.968;5.816;2022-08-18T19:46:47;9.70;;;6.45;;
68993;SDS011;56054;50.968;5.816;2022-08-18T19:57:11;9.20;;;6.80;;
68993;SDS011;56054;50.968;5.816;2022-08-18T20:00:40;8.60;;;6.55;;
68993;SDS011;56054;50.968;5.816;2022-08-18T20:07:18;7.18;;;6.43;;
68993;SDS011;56054;50.968;5.816;2022-08-18T20:14:31;10.93;;;6.70;;
68993;SDS011;56054;50.968;5.816;2022-08-18T20:24:36;6.55;;;5.45;;
68993;SDS011;56054;50.968;5.816;2022-08-18T20:27:52;8.95;;;6.63;;
68993;SDS011;56054;50.968;5.816;2022-08-18T20:31:42;9.27;;;6.68;;
68993;SDS011;56054;50.968;5.816;2022-08-18T20:34:49;10.52;;;8.00;;
68993;SDS011;56054;50.968;5.816;2022-08-18T20:41:31;11.15;;;8.10;;
68993;SDS011;56054;50.968;5.816;2022-08-18T20:51:28;9.25;;;8.27;;
68993;SDS011;56054;50.968;5.816;2022-08-18T20:54:52;12.02;;;10.73;;
68993;SDS011;56054;50.968;5.816;2022-08-18T20:58:08;18.13;;;14.48;;
68993;SDS011;56054;50.968;5.816;2022-08-18T21:01:20;15.77;;;13.57;;
68993;SDS011;56054;50.968;5.816;2022-08-18T21:04:44;22.55;;;14.18;;
68993;SDS011;56054;50.968;5.816;2022-08-18T21:08:05;18.77;;;13.88;;
68993;SDS011;56054;50.968;5.816;2022-08-18T21:11:22;14.35;;;12.82;;
68993;SDS011;56054;50.968;5.816;2022-08-18T21:14:34;14.93;;;13.25;;
68993;SDS011;56054;50.968;5.816;2022-08-18T21:17:40;14.75;;;13.18;;
68993;SDS011;56054;50.968;5.816;2022-08-18T21:20:52;13.70;;;12.27;;
68993;SDS011;56054;50.968;5.816;2022-08-18T21:24:02;14.40;;;12.63;;
68993;SDS011;56054;50.968;5.816;2022-08-18T21:27:32;17.05;;;13.57;;
68993;SDS011;56054;50.968;5.816;2022-08-18T21:30:58;16.15;;;12.77;;
68993;SDS011;56054;50.968;5.816;2022-08-18T21:37:55;14.18;;;12.52;;
68993;SDS011;56054;50.968;5.816;2022-08-18T21:41:40;16.90;;;13.35;;
68993;SDS011;56054;50.968;5.816;2022-08-18T21:44:50;18.55;;;14.10;;
68993;SDS011;56054;50.968;5.816;2022-08-18T21:48:02;17.13;;;14.23;;
68993;SDS011;56054;50.968;5.816;2022-08-18T21:51:16;18.00;;;13.77;;
68993;SDS011;56054;50.968;5.816;2022-08-18T21:54:29;17.17;;;14.13;;
68993;SDS011;56054;50.968;5.816;2022-08-18T21:57:49;15.85;;;13.48;;
68993;SDS011;56054;50.968;5.816;2022-08-18T22:04:29;16.38;;;14.05;;
68993;SDS011;56054;50.968;5.816;2022-08-18T22:07:47;17.80;;;14.23;;
68993;SDS011;56054;50.968;5.816;2022-08-18T22:21:27;18.23;;;16.30;;
68993;SDS011;56054;50.968;5.816;2022-08-18T22:24:57;19.52;;;16.30;;
68993;SDS011;56054;50.968;5.816;2022-08-18T22:28:04;20.25;;;17.05;;
68993;SDS011;56054;50.968;5.816;2022-08-18T22:31:11;17.65;;;15.85;;
68993;SDS011;56054;50.968;5.816;2022-08-18T22:34:22;17.83;;;15.93;;
68993;SDS011;56054;50.968;5.816;2022-08-18T22:37:31;20.35;;;17.65;;
68993;SDS011;56054;50.968;5.816;2022-08-18T22:40:45;22.58;;;16.83;;
68993;SDS011;56054;50.968;5.816;2022-08-18T22:43:52;20.23;;;17.02;;
68993;SDS011;56054;50.968;5.816;2022-08-18T22:46:59;19.55;;;17.42;;
68993;SDS011;56054;50.968;5.816;2022-08-18T22:50:07;22.45;;;17.95;;
68993;SDS011;56054;50.968;5.816;2022-08-18T22:53:26;22.23;;;18.50;;
68993;SDS011;56054;50.968;5.816;2022-08-18T22:56:37;24.48;;;17.98;;
68993;SDS011;56054;50.968;5.816;2022-08-18T22:59:47;21.85;;;18.40;;
68993;SDS011;56054;50.968;5.816;2022-08-18T23:02:54;26.38;;;16.88;;
68993;SDS011;56054;50.968;5.816;2022-08-18T23:06:01;20.98;;;18.35;;
68993;SDS011;56054;50.968;5.816;2022-08-18T23:09:08;20.70;;;16.67;;
68993;SDS011;56054;50.968;5.816;2022-08-18T23:12:15;19.63;;;17.25;;
68993;SDS011;56054;50.968;5.816;2022-08-18T23:15:22;21.02;;;18.83;;
68993;SDS011;56054;50.968;5.816;2022-08-18T23:18:29;20.08;;;17.45;;
68993;SDS011;56054;50.968;5.816;2022-08-18T23:21:37;23.13;;;18.85;;
68993;SDS011;56054;50.968;5.816;2022-08-18T23:24:44;19.70;;;17.13;;
68993;SDS011;56054;50.968;5.816;2022-08-18T23:27:51;24.02;;;16.58;;
68993;SDS011;56054;50.968;5.816;2022-08-18T23:30:58;21.35;;;17.33;;
68993;SDS011;56054;50.968;5.816;2022-08-18T23:34:05;20.38;;;16.40;;
68993;SDS011;56054;50.968;5.816;2022-08-18T23:37:13;23.55;;;17.48;;
68993;SDS011;56054;50.968;5.816;2022-08-18T23:40:20;20.35;;;16.83;;
68993;SDS011;56054;50.968;5.816;2022-08-18T23:44:01;23.92;;;17.92;;
68993;SDS011;56054;50.968;5.816;2022-08-18T23:47:08;26.45;;;16.63;;
68993;SDS011;56054;50.968;5.816;2022-08-18T23:50:15;22.08;;;17.63;;
68993;SDS011;56054;50.968;5.816;2022-08-18T23:53:22;21.75;;;15.00;;
68993;SDS011;56054;50.968;5.816;2022-08-18T23:56:30;22.08;;;17.30;;
68993;SDS011;56054;50.968;5.816;2022-08-18T23:59:37;19.27;;;15.90;;
